sensor_id;sensor_type;location;lat;lon;timestamp;pressure;altitude;pressure_sealevel;temperature;humidity
45327;BME280;31062;49.678;24.560;2023-04-23T00:02:18;98092.09;;;7.44;66.22
45327;BME280;31062;49.678;24.560;2023-04-23T00:05:07;97975.16;;;6.52;66.07
45327;BME280;31062;49.678;24.560;2023-04-23T00:07:53;98027.22;;;6.80;66.18
45327;BME280;31062;49.678;24.560;2023-04-23T00:10:39;98100.59;;;7.31;66.01
45327;BME280;31062;49.678;24.560;2023-04-23T00:13:25;98118.19;;;7.43;66.34
45327;BME280;31062;49.678;24.560;2023-04-23T00:16:12;97970.78;;;6.34;66.10
45327;BME280;31062;49.678;24.560;2023-04-23T00:18:57;98154.63;;;7.34;66.14
45327;BME280;31062;49.678;24.560;2023-04-23T00:21:44;98107.97;;;7.21;66.33
45327;BME280;31062;49.678;24.560;2023-04-23T00:24:29;97941.81;;;6.18;65.99
45327;BME280;31062;49.678;24.560;2023-04-23T00:27:16;98083.31;;;7.23;66.43
45327;BME280;31062;49.678;24.560;2023-04-23T00:30:03;98118.84;;;7.59;65.64
45327;BME280;31062;49.678;24.560;2023-04-23T00:32:48;98133.03;;;7.55;65.39
45327;BME280;31062;49.678;24.560;2023-04-23T00:35:34;97936.66;;;6.37;65.17
45327;BME280;31062;49.678;24.560;2023-04-23T00:38:19;98128.75;;;7.69;65.08
45327;BME280;31062;49.678;24.560;2023-04-23T00:41:05;98089.50;;;7.46;65.12
45327;BME280;31062;49.678;24.560;2023-04-23T00:43:54;97921.22;;;6.34;64.26
45327;BME280;31062;49.678;24.560;2023-04-23T00:46:41;98026.81;;;6.91;64.40
45327;BME280;31062;49.678;24.560;2023-04-23T00:49:28;97994.16;;;6.80;64.63
45327;BME280;31062;49.678;24.560;2023-04-23T00:52:13;98144.94;;;7.73;65.10
45327;BME280;31062;49.678;24.560;2023-04-23T00:54:59;97905.31;;;6.09;65.23
45327;BME280;31062;49.678;24.560;2023-04-23T00:57:44;98138.34;;;7.68;65.16
45327;BME280;31062;49.678;24.560;2023-04-23T01:00:30;98125.97;;;7.69;64.77
45327;BME280;31062;49.678;24.560;2023-04-23T01:03:18;98112.59;;;7.66;64.98
45327;BME280;31062;49.678;24.560;2023-04-23T01:06:06;98131.88;;;7.73;64.89
45327;BME280;31062;49.678;24.560;2023-04-23T01:08:52;97996.69;;;6.93;64.30
45327;BME280;31062;49.678;24.560;2023-04-23T01:11:39;98038.88;;;7.19;64.48
45327;BME280;31062;49.678;24.560;2023-04-23T01:14:27;97901.81;;;6.24;64.72
45327;BME280;31062;49.678;24.560;2023-04-23T01:17:12;98091.28;;;7.51;64.37
45327;BME280;31062;49.678;24.560;2023-04-23T01:19:58;98095.00;;;7.46;64.38
45327;BME280;31062;49.678;24.560;2023-04-23T01:22:44;98093.72;;;7.47;64.38
45327;BME280;31062;49.678;24.560;2023-04-23T01:25:30;97928.59;;;6.24;65.00
45327;BME280;31062;49.678;24.560;2023-04-23T01:28:16;98052.56;;;6.86;65.63
45327;BME280;31062;49.678;24.560;2023-04-23T01:31:02;97972.97;;;6.43;65.41
45327;BME280;31062;49.678;24.560;2023-04-23T01:33:49;97955.19;;;6.21;66.13
45327;BME280;31062;49.678;24.560;2023-04-23T01:36:36;98100.66;;;7.01;66.22
45327;BME280;31062;49.678;24.560;2023-04-23T01:39:22;98137.38;;;7.11;66.36
45327;BME280;31062;49.678;24.560;2023-04-23T01:42:07;98125.63;;;7.10;67.02
45327;BME280;31062;49.678;24.560;2023-04-23T01:44:53;98119.03;;;7.06;66.93
45327;BME280;31062;49.678;24.560;2023-04-23T01:47:40;98133.00;;;7.08;66.50
45327;BME280;31062;49.678;24.560;2023-04-23T01:50:26;98047.88;;;6.49;66.26
45327;BME280;31062;49.678;24.560;2023-04-23T01:53:14;98136.69;;;6.95;66.43
45327;BME280;31062;49.678;24.560;2023-04-23T01:56:00;98065.66;;;6.63;66.64
45327;BME280;31062;49.678;24.560;2023-04-23T01:58:46;98125.66;;;7.03;66.92
45327;BME280;31062;49.678;24.560;2023-04-23T02:01:43;98122.72;;;7.01;66.76
45327;BME280;31062;49.678;24.560;2023-04-23T02:04:29;98131.34;;;7.05;67.05
45327;BME280;31062;49.678;24.560;2023-04-23T02:07:15;98142.56;;;6.99;66.97
45327;BME280;31062;49.678;24.560;2023-04-23T02:10:01;97935.00;;;5.73;66.86
45327;BME280;31062;49.678;24.560;2023-04-23T02:12:47;97926.06;;;5.65;66.79
45327;BME280;31062;49.678;24.560;2023-04-23T02:15:33;97934.47;;;5.74;66.62
45327;BME280;31062;49.678;24.560;2023-04-23T02:18:18;98150.63;;;7.05;66.50
45327;BME280;31062;49.678;24.560;2023-04-23T02:21:04;97977.78;;;6.04;66.50
45327;BME280;31062;49.678;24.560;2023-04-23T02:23:50;98035.00;;;6.44;65.81
45327;BME280;31062;49.678;24.560;2023-04-23T02:26:36;98152.84;;;6.98;65.59
45327;BME280;31062;49.678;24.560;2023-04-23T02:29:21;97974.47;;;5.83;65.81
45327;BME280;31062;49.678;24.560;2023-04-23T02:32:06;98124.59;;;6.75;65.87
45327;BME280;31062;49.678;24.560;2023-04-23T02:34:52;98004.53;;;5.81;66.29
45327;BME280;31062;49.678;24.560;2023-04-23T02:37:37;98066.56;;;5.97;66.45
45327;BME280;31062;49.678;24.560;2023-04-23T02:40:24;98085.28;;;6.14;66.87
45327;BME280;31062;49.678;24.560;2023-04-23T02:43:09;98138.53;;;6.62;66.73
45327;BME280;31062;49.678;24.560;2023-04-23T02:45:55;98118.72;;;6.56;66.77
45327;BME280;31062;49.678;24.560;2023-04-23T02:48:40;97989.31;;;5.65;66.73
45327;BME280;31062;49.678;24.560;2023-04-23T02:51:26;98131.56;;;6.69;66.42
45327;BME280;31062;49.678;24.560;2023-04-23T02:54:12;98048.97;;;6.15;66.13
45327;BME280;31062;49.678;24.560;2023-04-23T02:56:57;98088.63;;;6.43;66.23
45327;BME280;31062;49.678;24.560;2023-04-23T02:59:43;98135.59;;;6.75;65.87
45327;BME280;31062;49.678;24.560;2023-04-23T03:02:28;97970.03;;;5.57;65.62
45327;BME280;31062;49.678;24.560;2023-04-23T03:05:14;97959.75;;;5.50;66.32
45327;BME280;31062;49.678;24.560;2023-04-23T03:07:59;98077.22;;;6.08;66.18
45327;BME280;31062;49.678;24.560;2023-04-23T03:10:45;98134.16;;;6.67;66.36
45327;BME280;31062;49.678;24.560;2023-04-23T03:13:31;98052.94;;;5.84;66.37
45327;BME280;31062;49.678;24.560;2023-04-23T03:16:16;98125.88;;;6.59;66.06
45327;BME280;31062;49.678;24.560;2023-04-23T03:19:03;97946.16;;;5.29;66.31
45327;BME280;31062;49.678;24.560;2023-04-23T03:21:49;98135.97;;;6.64;65.99
45327;BME280;31062;49.678;24.560;2023-04-23T03:24:34;98135.06;;;6.69;65.96
45327;BME280;31062;49.678;24.560;2023-04-23T03:27:19;97939.00;;;5.26;66.17
45327;BME280;31062;49.678;24.560;2023-04-23T03:30:06;97948.72;;;5.27;65.84
45327;BME280;31062;49.678;24.560;2023-04-23T03:32:54;97951.81;;;5.16;66.40
45327;BME280;31062;49.678;24.560;2023-04-23T03:35:41;98037.44;;;5.36;66.95
45327;BME280;31062;49.678;24.560;2023-04-23T03:38:32;97990.47;;;5.18;67.13
45327;BME280;31062;49.678;24.560;2023-04-23T03:41:20;98131.88;;;6.04;67.36
45327;BME280;31062;49.678;24.560;2023-04-23T03:44:07;97962.13;;;4.80;67.58
45327;BME280;31062;49.678;24.560;2023-04-23T03:47:02;98142.88;;;5.97;68.23
45327;BME280;31062;49.678;24.560;2023-04-23T03:49:48;98106.66;;;5.70;68.51
45327;BME280;31062;49.678;24.560;2023-04-23T03:52:35;98145.09;;;5.98;68.85
45327;BME280;31062;49.678;24.560;2023-04-23T03:55:21;98144.31;;;5.90;69.15
45327;BME280;31062;49.678;24.560;2023-04-23T03:58:07;98029.25;;;5.07;68.89
45327;BME280;31062;49.678;24.560;2023-04-23T04:01:02;97961.28;;;4.57;68.91
45327;BME280;31062;49.678;24.560;2023-04-23T04:03:48;98078.09;;;5.29;69.10
45327;BME280;31062;49.678;24.560;2023-04-23T04:06:34;97971.97;;;4.68;69.15
45327;BME280;31062;49.678;24.560;2023-04-23T04:09:20;97959.47;;;4.59;69.34
45327;BME280;31062;49.678;24.560;2023-04-23T04:12:06;98149.13;;;5.97;70.35
45327;BME280;31062;49.678;24.560;2023-04-23T04:14:54;98154.66;;;6.12;69.82
45327;BME280;31062;49.678;24.560;2023-04-23T04:17:39;98158.72;;;6.34;69.89
45327;BME280;31062;49.678;24.560;2023-04-23T04:20:26;98158.19;;;6.51;69.68
45327;BME280;31062;49.678;24.560;2023-04-23T04:23:13;98050.38;;;5.86;69.17
45327;BME280;31062;49.678;24.560;2023-04-23T04:26:00;98150.28;;;6.63;69.03
45327;BME280;31062;49.678;24.560;2023-04-23T04:28:46;98159.84;;;6.69;68.51
45327;BME280;31062;49.678;24.560;2023-04-23T04:31:32;98159.84;;;6.69;68.97
45327;BME280;31062;49.678;24.560;2023-04-23T04:34:18;98150.84;;;6.76;69.33
45327;BME280;31062;49.678;24.560;2023-04-23T04:37:05;98162.78;;;7.02;69.50
45327;BME280;31062;49.678;24.560;2023-04-23T04:39:52;98149.88;;;7.19;69.08
45327;BME280;31062;49.678;24.560;2023-04-23T04:42:39;98166.19;;;7.40;69.08
45327;BME280;31062;49.678;24.560;2023-04-23T04:45:26;97984.91;;;6.38;67.97
45327;BME280;31062;49.678;24.560;2023-04-23T04:48:11;97971.50;;;6.42;67.68
45327;BME280;31062;49.678;24.560;2023-04-23T04:50:57;98087.75;;;7.26;67.74
45327;BME280;31062;49.678;24.560;2023-04-23T04:53:43;98163.94;;;8.01;67.62
45327;BME280;31062;49.678;24.560;2023-04-23T04:56:28;98130.47;;;7.97;67.73
45327;BME280;31062;49.678;24.560;2023-04-23T04:59:14;98090.78;;;7.85;66.73
45327;BME280;31062;49.678;24.560;2023-04-23T05:01:59;98164.06;;;8.43;67.16
45327;BME280;31062;49.678;24.560;2023-04-23T05:04:45;97982.91;;;7.33;66.25
45327;BME280;31062;49.678;24.560;2023-04-23T05:07:30;98169.38;;;8.74;66.22
45327;BME280;31062;49.678;24.560;2023-04-23T05:10:16;98137.00;;;8.67;65.66
45327;BME280;31062;49.678;24.560;2023-04-23T05:13:01;98119.06;;;8.75;65.15
45327;BME280;31062;49.678;24.560;2023-04-23T05:15:47;98188.81;;;9.25;64.89
45327;BME280;31062;49.678;24.560;2023-04-23T05:18:32;98117.56;;;8.99;63.82
45327;BME280;31062;49.678;24.560;2023-04-23T05:21:18;98183.47;;;9.62;63.66
45327;BME280;31062;49.678;24.560;2023-04-23T05:24:03;97995.56;;;8.78;63.42
45327;BME280;31062;49.678;24.560;2023-04-23T05:26:49;98144.28;;;10.09;63.13
45327;BME280;31062;49.678;24.560;2023-04-23T05:29:34;97995.41;;;9.37;62.40
45327;BME280;31062;49.678;24.560;2023-04-23T05:32:20;97994.72;;;9.73;61.68
45327;BME280;31062;49.678;24.560;2023-04-23T05:35:05;98157.69;;;11.22;61.71
45327;BME280;31062;49.678;24.560;2023-04-23T05:37:51;98150.53;;;11.58;61.49
45327;BME280;31062;49.678;24.560;2023-04-23T05:40:37;98150.84;;;11.91;60.09
45327;BME280;31062;49.678;24.560;2023-04-23T05:43:23;98155.53;;;12.38;59.08
45327;BME280;31062;49.678;24.560;2023-04-23T05:46:08;97991.13;;;11.61;58.64
45327;BME280;31062;49.678;24.560;2023-04-23T05:48:53;98101.31;;;12.58;57.76
45327;BME280;31062;49.678;24.560;2023-04-23T05:51:39;98113.34;;;13.03;57.43
45327;BME280;31062;49.678;24.560;2023-04-23T05:54:25;98005.03;;;12.53;57.06
45327;BME280;31062;49.678;24.560;2023-04-23T05:57:10;98127.47;;;13.71;56.07
45327;BME280;31062;49.678;24.560;2023-04-23T05:59:57;98161.66;;;14.16;55.59
45327;BME280;31062;49.678;24.560;2023-04-23T06:02:43;98083.44;;;13.91;54.76
45327;BME280;31062;49.678;24.560;2023-04-23T06:05:29;98153.63;;;14.67;53.83
45327;BME280;31062;49.678;24.560;2023-04-23T06:08:15;98111.41;;;14.61;53.14
45327;BME280;31062;49.678;24.560;2023-04-23T06:11:00;98140.50;;;14.93;51.59
45327;BME280;31062;49.678;24.560;2023-04-23T06:13:46;98044.59;;;14.40;51.32
45327;BME280;31062;49.678;24.560;2023-04-23T06:16:32;98025.22;;;14.42;50.34
45327;BME280;31062;49.678;24.560;2023-04-23T06:19:18;98035.72;;;14.55;49.34
45327;BME280;31062;49.678;24.560;2023-04-23T06:22:04;98146.00;;;15.39;48.62
45327;BME280;31062;49.678;24.560;2023-04-23T06:24:49;98145.13;;;15.48;49.96
45327;BME280;31062;49.678;24.560;2023-04-23T06:27:36;98140.88;;;15.59;50.47
45327;BME280;31062;49.678;24.560;2023-04-23T06:30:28;98148.59;;;15.72;49.33
45327;BME280;31062;49.678;24.560;2023-04-23T06:33:14;98135.44;;;15.75;49.75
45327;BME280;31062;49.678;24.560;2023-04-23T06:35:59;98150.03;;;15.99;49.24
45327;BME280;31062;49.678;24.560;2023-04-23T06:38:45;98152.66;;;16.08;48.93
45327;BME280;31062;49.678;24.560;2023-04-23T06:41:30;98138.63;;;16.20;47.83
45327;BME280;31062;49.678;24.560;2023-04-23T06:44:45;98109.06;;;16.17;48.64
45327;BME280;31062;49.678;24.560;2023-04-23T06:47:33;98102.59;;;16.26;47.99
45327;BME280;31062;49.678;24.560;2023-04-23T06:50:19;98133.81;;;16.48;47.70
45327;BME280;31062;49.678;24.560;2023-04-23T06:53:04;98125.44;;;16.61;47.58
45327;BME280;31062;49.678;24.560;2023-04-23T06:55:50;98124.41;;;16.68;47.29
45327;BME280;31062;49.678;24.560;2023-04-23T06:58:35;98121.22;;;16.74;47.20
45327;BME280;31062;49.678;24.560;2023-04-23T07:01:30;97986.09;;;15.91;47.10
45327;BME280;31062;49.678;24.560;2023-04-23T07:04:15;98088.97;;;16.59;46.73
45327;BME280;31062;49.678;24.560;2023-04-23T07:07:01;98132.69;;;17.07;46.30
45327;BME280;31062;49.678;24.560;2023-04-23T07:09:47;98122.53;;;17.14;47.53
45327;BME280;31062;49.678;24.560;2023-04-23T07:12:33;98097.44;;;16.89;46.60
45327;BME280;31062;49.678;24.560;2023-04-23T07:15:18;98066.97;;;16.95;46.13
45327;BME280;31062;49.678;24.560;2023-04-23T07:18:04;98095.44;;;17.19;44.77
45327;BME280;31062;49.678;24.560;2023-04-23T07:20:51;98042.38;;;16.93;44.30
45327;BME280;31062;49.678;24.560;2023-04-23T07:23:36;98069.34;;;17.00;43.79
45327;BME280;31062;49.678;24.560;2023-04-23T07:26:23;98099.25;;;17.39;43.23
45327;BME280;31062;49.678;24.560;2023-04-23T07:29:08;98010.91;;;16.79;40.38
45327;BME280;31062;49.678;24.560;2023-04-23T07:31:58;98134.88;;;17.66;40.41
45327;BME280;31062;49.678;24.560;2023-04-23T07:34:43;98151.69;;;17.66;41.93
45327;BME280;31062;49.678;24.560;2023-04-23T07:37:29;98130.56;;;17.63;42.02
45327;BME280;31062;49.678;24.560;2023-04-23T07:40:15;98039.97;;;17.15;42.99
45327;BME280;31062;49.678;24.560;2023-04-23T07:43:01;97999.63;;;17.06;42.63
45327;BME280;31062;49.678;24.560;2023-04-23T07:45:46;98081.31;;;17.60;42.12
45327;BME280;31062;49.678;24.560;2023-04-23T07:48:32;97998.03;;;17.17;39.81
45327;BME280;31062;49.678;24.560;2023-04-23T07:51:19;98072.53;;;17.81;39.32
45327;BME280;31062;49.678;24.560;2023-04-23T07:54:07;98103.69;;;18.18;37.98
45327;BME280;31062;49.678;24.560;2023-04-23T07:56:55;98116.91;;;18.31;37.21
45327;BME280;31062;49.678;24.560;2023-04-23T07:59:42;97979.66;;;17.43;36.58
45327;BME280;31062;49.678;24.560;2023-04-23T08:02:31;98086.97;;;18.20;36.52
45327;BME280;31062;49.678;24.560;2023-04-23T08:05:18;98101.53;;;18.32;36.57
45327;BME280;31062;49.678;24.560;2023-04-23T08:08:03;98099.34;;;18.31;36.67
45327;BME280;31062;49.678;24.560;2023-04-23T08:10:49;98112.59;;;18.44;35.99
45327;BME280;31062;49.678;24.560;2023-04-23T08:13:36;98095.91;;;18.32;35.22
45327;BME280;31062;49.678;24.560;2023-04-23T08:16:22;98087.41;;;18.30;34.70
45327;BME280;31062;49.678;24.560;2023-04-23T08:19:08;98103.53;;;18.46;34.45
45327;BME280;31062;49.678;24.560;2023-04-23T08:21:53;97987.88;;;17.69;34.19
45327;BME280;31062;49.678;24.560;2023-04-23T08:24:39;98092.47;;;18.50;34.07
45327;BME280;31062;49.678;24.560;2023-04-23T08:27:25;98093.75;;;18.47;33.36
45327;BME280;31062;49.678;24.560;2023-04-23T08:30:11;98059.81;;;18.25;33.20
45327;BME280;31062;49.678;24.560;2023-04-23T08:32:57;97969.41;;;17.64;34.02
45327;BME280;31062;49.678;24.560;2023-04-23T08:35:42;98088.50;;;18.55;33.87
45327;BME280;31062;49.678;24.560;2023-04-23T08:38:27;98102.25;;;18.49;33.03
45327;BME280;31062;49.678;24.560;2023-04-23T08:41:14;98099.38;;;18.62;33.57
45327;BME280;31062;49.678;24.560;2023-04-23T08:44:17;98100.44;;;18.71;32.75
45327;BME280;31062;49.678;24.560;2023-04-23T08:47:03;98092.84;;;18.73;33.60
45327;BME280;31062;49.678;24.560;2023-04-23T08:49:53;98092.28;;;18.77;32.83
45327;BME280;31062;49.678;24.560;2023-04-23T08:52:41;98003.97;;;18.15;33.56
45327;BME280;31062;49.678;24.560;2023-04-23T08:55:30;97937.75;;;17.77;32.94
45327;BME280;31062;49.678;24.560;2023-04-23T08:58:18;98106.41;;;18.79;32.44
45327;BME280;31062;49.678;24.560;2023-04-23T09:01:05;98099.09;;;18.72;32.63
45327;BME280;31062;49.678;24.560;2023-04-23T09:03:52;97941.38;;;17.79;32.61
45327;BME280;31062;49.678;24.560;2023-04-23T09:06:38;98086.84;;;18.81;32.34
45327;BME280;31062;49.678;24.560;2023-04-23T09:09:27;98096.63;;;18.80;32.10
45327;BME280;31062;49.678;24.560;2023-04-23T09:12:13;98041.84;;;18.48;31.87
45327;BME280;31062;49.678;24.560;2023-04-23T09:15:00;98065.66;;;18.78;32.36
45327;BME280;31062;49.678;24.560;2023-04-23T09:17:46;98085.75;;;18.88;32.68
45327;BME280;31062;49.678;24.560;2023-04-23T09:20:32;98064.81;;;18.91;31.02
45327;BME280;31062;49.678;24.560;2023-04-23T09:23:20;98039.03;;;18.79;31.41
45327;BME280;31062;49.678;24.560;2023-04-23T09:26:06;98061.06;;;19.02;33.03
45327;BME280;31062;49.678;24.560;2023-04-23T09:28:52;97964.28;;;18.39;32.98
45327;BME280;31062;49.678;24.560;2023-04-23T09:31:38;97979.22;;;18.59;33.30
45327;BME280;31062;49.678;24.560;2023-04-23T09:34:24;98067.53;;;19.23;32.34
45327;BME280;31062;49.678;24.560;2023-04-23T09:37:09;98045.69;;;19.39;32.73
45327;BME280;31062;49.678;24.560;2023-04-23T09:39:58;97918.09;;;18.42;30.60
45327;BME280;31062;49.678;24.560;2023-04-23T09:42:50;98029.63;;;19.24;30.87
45327;BME280;31062;49.678;24.560;2023-04-23T09:45:49;98061.28;;;19.42;30.67
45327;BME280;31062;49.678;24.560;2023-04-23T09:48:40;98029.63;;;19.24;28.69
45327;BME280;31062;49.678;24.560;2023-04-23T09:51:26;98051.53;;;19.45;30.02
45327;BME280;31062;49.678;24.560;2023-04-23T09:54:14;98037.50;;;19.45;31.53
45327;BME280;31062;49.678;24.560;2023-04-23T09:57:00;98039.84;;;19.50;31.60
45327;BME280;31062;49.678;24.560;2023-04-23T09:59:47;98048.66;;;19.61;31.78
45327;BME280;31062;49.678;24.560;2023-04-23T10:02:48;98006.41;;;19.41;31.00
45327;BME280;31062;49.678;24.560;2023-04-23T10:05:39;97902.47;;;18.70;31.63
45327;BME280;31062;49.678;24.560;2023-04-23T10:08:31;97880.00;;;18.70;32.56
45327;BME280;31062;49.678;24.560;2023-04-23T10:11:17;98030.25;;;19.75;31.36
45327;BME280;31062;49.678;24.560;2023-04-23T10:14:06;97891.53;;;18.78;31.14
45327;BME280;31062;49.678;24.560;2023-04-23T10:17:01;97970.53;;;19.22;30.53
45327;BME280;31062;49.678;24.560;2023-04-23T10:19:48;98032.44;;;19.77;31.44
45327;BME280;31062;49.678;24.560;2023-04-23T10:22:36;98015.06;;;19.82;30.67
45327;BME280;31062;49.678;24.560;2023-04-23T10:25:23;98020.75;;;19.84;30.33
45327;BME280;31062;49.678;24.560;2023-04-23T10:28:09;97950.94;;;19.24;30.65
45327;BME280;31062;49.678;24.560;2023-04-23T10:30:57;97898.31;;;19.06;31.22
45327;BME280;31062;49.678;24.560;2023-04-23T10:33:42;98013.84;;;19.87;31.28
45327;BME280;31062;49.678;24.560;2023-04-23T10:36:43;97986.25;;;19.64;31.23
45327;BME280;31062;49.678;24.560;2023-04-23T10:39:31;97965.72;;;19.42;30.65
45327;BME280;31062;49.678;24.560;2023-04-23T10:42:18;98005.31;;;19.85;29.85
45327;BME280;31062;49.678;24.560;2023-04-23T10:45:11;97980.78;;;19.68;29.73
45327;BME280;31062;49.678;24.560;2023-04-23T10:48:08;97987.38;;;19.57;30.53
45327;BME280;31062;49.678;24.560;2023-04-23T10:50:57;97910.16;;;19.23;30.85
45327;BME280;31062;49.678;24.560;2023-04-23T10:54:06;97850.72;;;18.93;30.67
45327;BME280;31062;49.678;24.560;2023-04-23T10:56:57;97957.88;;;19.76;30.33
45327;BME280;31062;49.678;24.560;2023-04-23T10:59:51;97996.28;;;20.07;30.32
45327;BME280;31062;49.678;24.560;2023-04-23T11:02:42;97977.94;;;20.06;29.84
45327;BME280;31062;49.678;24.560;2023-04-23T11:05:28;97996.13;;;20.03;29.81
45327;BME280;31062;49.678;24.560;2023-04-23T11:08:15;97960.09;;;19.79;30.84
45327;BME280;31062;49.678;24.560;2023-04-23T11:11:08;97841.41;;;19.06;31.02
45327;BME280;31062;49.678;24.560;2023-04-23T11:13:54;97989.06;;;20.02;29.78
45327;BME280;31062;49.678;24.560;2023-04-23T11:16:40;97934.78;;;19.79;29.59
45327;BME280;31062;49.678;24.560;2023-04-23T11:19:30;97986.47;;;20.08;29.78
45327;BME280;31062;49.678;24.560;2023-04-23T11:22:16;97958.34;;;20.08;29.90
45327;BME280;31062;49.678;24.560;2023-04-23T11:25:08;97933.09;;;19.90;29.43
45327;BME280;31062;49.678;24.560;2023-04-23T11:27:56;97979.97;;;20.23;29.10
45327;BME280;31062;49.678;24.560;2023-04-23T11:30:49;97943.16;;;19.97;29.96
45327;BME280;31062;49.678;24.560;2023-04-23T11:33:37;97962.56;;;20.09;28.97
45327;BME280;31062;49.678;24.560;2023-04-23T11:36:26;97954.00;;;20.05;28.42
45327;BME280;31062;49.678;24.560;2023-04-23T11:39:11;97971.31;;;20.17;29.07
45327;BME280;31062;49.678;24.560;2023-04-23T11:41:57;97867.38;;;19.44;27.90
45327;BME280;31062;49.678;24.560;2023-04-23T11:44:47;97776.38;;;18.76;28.74
45327;BME280;31062;49.678;24.560;2023-04-23T11:47:33;97930.81;;;19.67;30.00
45327;BME280;31062;49.678;24.560;2023-04-23T11:50:20;97957.16;;;20.15;29.57
45327;BME280;31062;49.678;24.560;2023-04-23T11:53:08;97946.78;;;20.00;29.79
45327;BME280;31062;49.678;24.560;2023-04-23T11:55:55;97826.22;;;19.33;28.06
45327;BME280;31062;49.678;24.560;2023-04-23T11:58:42;97890.94;;;19.72;28.54
45327;BME280;31062;49.678;24.560;2023-04-23T12:01:38;97953.13;;;20.20;29.39
45327;BME280;31062;49.678;24.560;2023-04-23T12:04:28;97955.72;;;20.14;29.97
45327;BME280;31062;49.678;24.560;2023-04-23T12:07:15;97951.53;;;20.15;29.06
45327;BME280;31062;49.678;24.560;2023-04-23T12:10:16;97945.91;;;20.15;28.43
45327;BME280;31062;49.678;24.560;2023-04-23T12:13:02;97975.44;;;20.14;28.56
45327;BME280;31062;49.678;24.560;2023-04-23T12:15:53;97779.41;;;19.02;29.28
45327;BME280;31062;49.678;24.560;2023-04-23T12:18:41;97954.00;;;20.24;29.01
45327;BME280;31062;49.678;24.560;2023-04-23T12:21:29;97932.03;;;20.21;28.40
45327;BME280;31062;49.678;24.560;2023-04-23T12:24:15;97898.88;;;19.97;28.62
45327;BME280;31062;49.678;24.560;2023-04-23T12:27:00;97874.13;;;19.74;28.06
45327;BME280;31062;49.678;24.560;2023-04-23T12:29:48;97922.22;;;20.22;28.23
45327;BME280;31062;49.678;24.560;2023-04-23T12:32:37;97927.72;;;20.18;28.55
45327;BME280;31062;49.678;24.560;2023-04-23T12:35:48;97922.81;;;20.18;28.06
45327;BME280;31062;49.678;24.560;2023-04-23T12:38:35;97924.84;;;20.16;27.57
45327;BME280;31062;49.678;24.560;2023-04-23T12:41:21;97783.75;;;19.25;27.69
45327;BME280;31062;49.678;24.560;2023-04-23T12:44:07;97887.34;;;19.89;27.57
45327;BME280;31062;49.678;24.560;2023-04-23T12:46:54;97901.59;;;20.15;27.58
45327;BME280;31062;49.678;24.560;2023-04-23T12:49:42;97907.50;;;20.23;28.17
45327;BME280;31062;49.678;24.560;2023-04-23T12:52:28;97737.81;;;19.16;27.99
45327;BME280;31062;49.678;24.560;2023-04-23T12:55:14;97884.28;;;20.23;27.82
45327;BME280;31062;49.678;24.560;2023-04-23T12:58:00;97880.38;;;20.32;27.77
45327;BME280;31062;49.678;24.560;2023-04-23T13:00:45;97741.81;;;19.31;27.93
45327;BME280;31062;49.678;24.560;2023-04-23T13:03:31;97840.00;;;20.04;27.87
45327;BME280;31062;49.678;24.560;2023-04-23T13:06:16;97891.63;;;20.32;28.53
45327;BME280;31062;49.678;24.560;2023-04-23T13:09:02;97699.75;;;19.13;27.96
45327;BME280;31062;49.678;24.560;2023-04-23T13:11:50;97867.81;;;20.35;28.21
45327;BME280;31062;49.678;24.560;2023-04-23T13:14:38;97769.66;;;19.62;27.12
45327;BME280;31062;49.678;24.560;2023-04-23T13:17:24;97762.69;;;19.63;27.49
45327;BME280;31062;49.678;24.560;2023-04-23T13:20:10;97738.41;;;19.52;27.33
45327;BME280;31062;49.678;24.560;2023-04-23T13:22:56;97738.19;;;19.46;26.40
45327;BME280;31062;49.678;24.560;2023-04-23T13:25:41;97743.81;;;19.46;26.79
45327;BME280;31062;49.678;24.560;2023-04-23T13:28:27;97871.66;;;20.24;26.97
45327;BME280;31062;49.678;24.560;2023-04-23T13:31:13;97867.97;;;20.19;27.06
45327;BME280;31062;49.678;24.560;2023-04-23T13:33:59;97725.34;;;19.21;27.66
45327;BME280;31062;49.678;24.560;2023-04-23T13:36:47;97772.00;;;19.48;27.12
45327;BME280;31062;49.678;24.560;2023-04-23T13:39:33;97839.28;;;20.03;26.64
45327;BME280;31062;49.678;24.560;2023-04-23T13:42:18;97847.28;;;20.11;27.28
45327;BME280;31062;49.678;24.560;2023-04-23T13:45:04;97809.88;;;19.86;27.04
45327;BME280;31062;49.678;24.560;2023-04-23T13:47:50;97813.63;;;19.73;27.03
45327;BME280;31062;49.678;24.560;2023-04-23T13:50:36;97817.94;;;19.96;27.00
45327;BME280;31062;49.678;24.560;2023-04-23T13:53:22;97798.50;;;19.82;27.19
45327;BME280;31062;49.678;24.560;2023-04-23T13:56:07;97811.53;;;19.93;26.05
45327;BME280;31062;49.678;24.560;2023-04-23T13:58:53;97786.53;;;19.82;27.29
45327;BME280;31062;49.678;24.560;2023-04-23T14:01:52;97716.63;;;19.33;27.47
45327;BME280;31062;49.678;24.560;2023-04-23T14:04:38;97767.16;;;19.70;26.89
45327;BME280;31062;49.678;24.560;2023-04-23T14:07:24;97738.53;;;19.56;26.67
45327;BME280;31062;49.678;24.560;2023-04-23T14:10:10;97816.03;;;20.03;27.56
45327;BME280;31062;49.678;24.560;2023-04-23T14:12:55;97693.38;;;19.30;27.93
45327;BME280;31062;49.678;24.560;2023-04-23T14:15:41;97727.16;;;19.52;27.04
45327;BME280;31062;49.678;24.560;2023-04-23T14:18:27;97847.88;;;20.29;27.40
45327;BME280;31062;49.678;24.560;2023-04-23T14:21:12;97714.03;;;19.39;26.56
45327;BME280;31062;49.678;24.560;2023-04-23T14:24:07;97810.81;;;20.15;26.13
45327;BME280;31062;49.678;24.560;2023-04-23T14:26:54;97783.41;;;19.93;27.24
45327;BME280;31062;49.678;24.560;2023-04-23T14:29:44;97833.91;;;20.31;28.46
45327;BME280;31062;49.678;24.560;2023-04-23T14:32:30;97684.13;;;19.28;28.96
45327;BME280;31062;49.678;24.560;2023-04-23T14:35:16;97845.72;;;20.27;28.90
45327;BME280;31062;49.678;24.560;2023-04-23T14:38:13;97831.31;;;20.17;27.78